Strona główna
METAR-TAF:

METAR-TAF

Lotnisko :

Port lotniczy EuroAirport Bazylea-Miluza-Fryburg

Bazylea-Miluza-Fryburg, Francja

Szerokość geograficzna: 47-36N, Długość geograficzna: 007-31E, wysokość: 270 m

Aktualna obserwacja pogody

Raport powstał 32 minut temu, godzina 11:30 UTC
Wiatr 4 kt od południe
Temperatura 10°C
Wilgotność 82%
Ciśnienie 1009 hPa
Widzialność 10 km lub więcej
Brak chmur poniżej 1500 m i brak chmur cumulonimbus

METAR: LFSB 161130Z 19004KT CAVOK 10/07 Q1009 NOSIG

czas: 13:02 (12:02 UTC)

Prognoza

Raport powstał 1 godzina i 2 minut temu, godzina 11:00 UTC
Prognoza ważna od 16 godzina 12 UTC do 17 godzina 12 UTC
Wiatr 5 kt od południowo-południowy wschód
Widzialność 10 km lub więcej
Brak chmur poniżej 1500 m i brak chmur cumulonimbus
Prawdopodobieństwo 40% :
Przejściowo
od 16 godzina 19 UTC do 16 godzina 22 UTC
Wiatr 10 kt od wschodnio-południowy wschód

TAF: LFSB 161100Z 1612/1712 16005KT CAVOK PROB40 TEMPO 1619/1622 12010KT

Obserwacja i prognoza pogody dla ponad 4000 lotnisk (raport METAR i TAF).

Dostępne stacje oznaczono żółtymi i czerwonymi punktami na mapie.

Najedź kursorem aby zobaczyć nazwę stacji.

Kliknij aby zobaczyć obserwacje i prognozy pogody.

Aby zmienić mapę: kliknij na zielony przycisk z czarnym krzyżykiem, aby powiększyć; na zielony przycisk z myślnikiem, aby pomniejszyć; na zielone strzałki, aby przejść do map sąsiednich.


METAR-TAF: